Texarkana, AR

10:27 PM CST on February 11, 2016 (GMT -0600)
Texas High School - Texarkana | | Change Station
CLOSE
Current Station
Personal Weather Station
Location: Texarkana, TX
Elevation: 341 ft
Nearby Weather Stations

Elev 341 ft 33.45 °N, 94.07 °W | Updated 27 minutes ago

Clear
Clear
50.4 °F
Feels Like 50.4 °F
N
6.0
Wind Variable Wind from East
Gusts 10.0 mph

Today
High -- | Low -- °F
--% Chance of Precip.
Yesterday
High -- | Low -- °F
Precip. -- in
Pressure 30.15 in
Visibility 10.0 miles
Clouds Clear
Dew Point 34 °F
Humidity 53%
Rainfall 0.00 in
Snow Depth Not available.
7:04 AM 5:56 PM
Waxing Crescent, 17% visible
METAR KTXK 120353Z AUTO VRB05KT 10SM CLR 09/00 A3016 RMK AO2 SLP210 T00890000
Pressure 30.15 in
Visibility 10.0 miles
Clouds Clear
Dew Point 34 °F
Humidity 53%
Rainfall 0.00 in
Snow Depth Not available.
7:04 AM 5:56 PM
Waxing Crescent, 17% visible
METAR KTXK 120353Z AUTO VRB05KT 10SM CLR 09/00 A3016 RMK AO2 SLP210 T00890000

10-Day Weather Forecast

Almanac

Astronomy

Feb. 11, 2016 Rise Set
Actual Time
Civil Twilight
Nautical Twilight
Astronomical Twilight
Moon
Length of Visible Light
Length of Day
Tomorrow will be .
, % of the Moon is Illuminated

Today's Extremes

State Highs State Lows

Community

WunderPhotos

Upload Photos

1,892,266 photos uploaded!

WunderBlog® & News

Nearby

Air Quality

  Air Quality AQ Index Pollutant
Not available.

Snow Depth

Station Depth Elevation

Earthquake Activity

City Distance Mag. Time & Date
Minimum magnitude displayed is 2.5.

Coastal Water Temperatures

Place Temperature

Stations

Nearby Weather Stations

Station Location Temp. Windchill Dew Point Humidity Wind Precip. Elev Updated Type
                   

Watches & Warnings

There are currently no watches in effect.